Preston Hill, Pennsylvania
Current Conditions -  °F | °C
As of 1:15 AM on Thursday 23 Oct 2014 (Local Time) from KHZL Reporting Station
Light Rain Light Rain  
Wind Chill: 38°   Ceiling: 700
Heat Index: 45°   Visibility: 10mi
Dew Point: 43°   Wind: 14mph
Humidity: 93%   Direction: 330°NNW
Pressure: 29.91"   Gusts: 30mph
Location:  40.7904°N, 76.2898°W
Report Text: KHZL 230515Z AUTO 33012G26KT 10SM -RA OVC007 07/06 A2991 RMK AO2
Loading
Personal Weather Stations






























Interactive Weather Map
Tropical Storm Tracking
New forecast layout! Learn more

10-Day Weather Forecast

Advertisements
Track Severe Weather on mobile